Main page
METAR-TAF:

METAR-TAF

Airports :

Béziers, France

Béziers Cap d'Agde Airport

latitude: 43-19N, longitude: 003-21E, elevation: 17 m

Current weather observation

The report was made 13 minutes ago, at 04:30 UTC
Calm wind
Temperature 7°C
Humidity 87%
Pressure 1012 hPa
Visibility 10 km or more
no clouds below 1500 m and no cumulonimbus

METAR: LFMU 270430Z AUTO 00000KT CAVOK 07/05 Q1012 NOSIG

Time: 06:43 (04:43 UTC)

Forecast

The report was made 2 hours and 43 minutes ago, at 02:00 UTC
Forecast valid from 27 at 03 UTC to 28 at 03 UTC
Wind 4 kt from the West
Visibility 10 km or more
no clouds below 1500 m and no cumulonimbus
Becoming
from 27 at 07 UTC to 27 at 09 UTC
Wind 10 kt from the South/Southeast
Becoming
from 27 at 21 UTC to 27 at 23 UTC
Wind 10 kt from the West

TAF: LFMU 270200Z 2703/2803 28004KT CAVOK BECMG 2707/2709 15010KT BECMG 2721/2723 28010KT

Weather observations and forecasts of more than 4000 airports (METAR and TAF reports).

The available stations are represented by yellow and red dots on the map.

Hover mouse over dot to see the name of the station.

Then click to see weather observations and forecasts.

To change the map : click on the green buttons with a black cross to zoom in, on the green button with a dash to zoom out, or on the green arrows for adjacent maps.


METAR-TAF: